رداً على: مطارات اوربا

الرئيسية المنتدى المطارات مطارات اوربا رداً على: مطارات اوربا

#1630
عبد الله فهد
مدير عام

النمسا

04/06/22 

OERK TO LOWW 

FL360

الوصول 0803Z

ALT 

LOWL

الروت 

OERK IVON1G IVONU V166 OVEKU M321 HLF L604 WEJ L677 CVO L617 NOZ L551 ANTAR UN133 PEREN UL863 EVIVI L863 OKANA..OBAGI..ESIRI..DONIV.. PARAK..BALUX..TORNO..NATEX NATE1W LOWW

الجو

TAF LOWW 031715Z 0318/0424 14010KT CAVOK TX27/0414Z TN18/0424Z    TEMPO 0323/0404 28020G30KT +TSRA SCT040CB    BECMG 0405/0407 34008KT    PROB30 TEMPO 0413/0418 35015G25KT TSRA FEW050CB

الموجات المستخدمة من الرياض الى فيينا

IVONU 126.000 Riyadh

OVEKU 127.750 Riyadh 

ROSUL 133.700Jeddah 

HLF 132.600 Jeddah

PASM 126.600 CAIRO RADAR 

KAPIT 127.700 CAIRO Control

ANTAR 133.325 KALIMARA RADAR -change SQ 

RIGRO 133.575 MACDONIA RADAR

MICPO 131.225 SOFIA RADAR – change SQ

BAVGA 123.775 Beograd Control

OBAGI 125.925 Beograd Control

PARAK 120.375 Budapest Control

133.200 Budapest Radar

129.050 NATEX -Vienna APP

 

ARRIVEL

NATEX 1W 

TRANSITION

PESAT 4N

RWY 34

بعدين اعطانا دايركت على نقطة اسمها 

WW971 

وكنا تقريبا 4000 هاي

الابروتش يخلونك سريع وكاتبين في البريف حق المطار سوي الابروتش كلين قدماتقدر وهذا الي سووه معانا. 

بعدها لاندنق على RWY 34 وطلعنا على TAXIWAY B7,D,L,TL32 Stand B83

————————————————————-

06/07/2022

 LOWW TO LOWS

FL160

الوصول 

0855Z

الروت 

LOWW SOVI2B SOVIL..SITNI..BAGSI..MATIG MATI1R LOWS

 الجو

TAF LOWS 032315Z 0400/0424 15006KT 9999 FEW060    TX25/0412Z TN16/0403Z    BECMG 0408/0410 34006KT    PROB40 TEMPO 0413/0418 32015G30KT 4500 TSRA BKN040 SCT050CB    BECMG 0418/0420 15005KT

SID 

SOVIL 2B 

RWY 16

Taxi:

RWY 16 via M EXIT 2 W21

الموجات المستخدمة من فيينا الى سالزبورغ

125.175

Xxxxxx

Xxxxxx 

123.725

 

STAR

MATIG 1R (بعدين كنسلها وعطلنا رادار فكتورز)

RWY 15 

التاكسي

TAXIWAY C واتبع ال Follow me W2

—————————————————————————

06/07/2022

LOWS TO OERK 

FL370

الروت 

LOWS NEMA3A NEMAL..RADLY..BEDOX..ZAG..MOSAV..LURID..DOBOT..FIR..

TORTO..VABEK UL603 OLOTA..DISOR UL608 FSK UG18 MES UL609 RDS UM601

EVENO M601 DASNI M855 RASDA A16 CVO L315 HGD M872 WEJ L604 GAS G662

VELOS VELO1A OERK

 

SID 

NEMAL 3A

RWY 

33 

Taxi 

RWY 33 Exit 3 L,F

 

الموجات المستخدمة من سالزبورغ للرياض

123.725 Salzburg APP

NEMAL 132.950 Salzburg control 

XXXXX 132.600 Control 

RADLY 130.235 Ljubljana Radar

BEDOX 130.215 Zagreb Radar

MOSAV 121.330 Zagreb Radar

LURID 133.290 Sarajevo Radar

DOBOT 128.865 Beograd Radar

VABEK 126.765 Beograd Radar 

OLOTA 136.425 Skopje control

DISOR 133.880 Macedonia 

PIPEN 133.325 Athens Radar 

EVNO 125.500 NICOSIA Radar

PEDER 129.550 NICOSIA 

RASDA 124.700 Cairo Radar change SQ 

CVO 126.600 Cairo Radar

SILKA  132.600 Jeddah control 

NADIK 133.700 Jeddah control

LAKRO 127.750 Riyadh control 

KUSRO 126.000 Riyadh control